Time;durP1;ratioP1;P1;durP2;ratioP2;P2;SDS_P1;SDS_P2;PMS_P1;PMS_P2;Temp;Humidity;BMP_temperature;BMP_pressure;BME280_temperature;BME280_humidity;BME280_pressure;Samples;Min_cycle;Max_cycle;Signal;HPM_P1;HPM_P2
2022/03/04 00:02:25;;;;;;;110.63;64.70;;;102.70;2227.20;;;;;;5063763;28;20037;-75
2022/03/04 00:04:51;;;;;;;119.95;64.95;;;102.60;2227.20;;;;;;5067840;28;20032;-73
2022/03/04 00:07:16;;;;;;;110.07;63.70;;;102.60;2227.20;;;;;;5063461;28;20429;-74
2022/03/04 00:09:42;;;;;;;110.82;59.50;;;102.60;2227.20;;;;;;5064483;28;20024;-74
2022/03/04 00:12:08;;;;;;;106.40;60.15;;;102.50;2227.20;;;;;;5062378;28;20032;-74
2022/03/04 00:14:34;;;;;;;113.68;62.03;;;102.40;2227.20;;;;;;5064594;28;20099;-74
2022/03/04 00:17:00;;;;;;;101.80;60.17;;;77.70;2227.20;;;;;;5063743;28;20159;-74
2022/03/04 00:19:26;;;;;;;103.80;59.13;;;77.70;2227.20;;;;;;5065860;28;20043;-74
2022/03/04 00:21:52;;;;;;;102.53;60.78;;;77.60;2227.20;;;;;;5064721;28;20458;-75
2022/03/04 00:24:19;;;;;;;104.00;55.88;;;77.40;2227.20;;;;;;5065193;28;20487;-74
2022/03/04 00:26:48;;;;;;;93.57;54.28;;;77.30;2227.20;;;;;;5056593;28;20432;-76
2022/03/04 00:29:15;;;;;;;90.97;51.60;;;77.30;2227.20;;;;;;5064366;28;20035;-73
2022/03/04 00:31:41;;;;;;;103.18;54.53;;;77.30;2227.20;;;;;;5066295;28;20017;-73
2022/03/04 00:34:08;;;;;;;88.00;50.10;;;77.20;2227.20;;;;;;5063061;28;20053;-74
2022/03/04 00:36:35;;;;;;;87.82;50.45;;;77.20;2227.20;;;;;;5064522;28;20400;-74
2022/03/04 00:39:02;;;;;;;100.85;50.83;;;77.10;2227.20;;;;;;5061496;28;20059;-73
2022/03/04 00:41:28;;;;;;;91.68;50.17;;;77.20;2227.20;;;;;;5063075;28;20070;-73
2022/03/04 00:43:53;;;;;;;91.45;50.13;;;77.10;2227.20;;;;;;5062937;28;20028;-73
2022/03/04 00:46:20;;;;;;;91.43;46.83;;;77.00;2227.20;;;;;;5063428;28;20032;-74
2022/03/04 00:48:46;;;;;;;87.45;49.65;;;77.00;2227.20;;;;;;5079050;28;20032;-74
2022/03/04 00:51:12;;;;;;;84.97;48.78;;;77.00;2227.20;;;;;;5063849;28;20017;-74
2022/03/04 00:53:40;;;;;;;85.15;48.75;;;76.90;2227.20;;;;;;5065620;28;20009;-73
2022/03/04 00:56:13;;;;;;;88.53;47.10;;;76.90;2227.20;;;;;;5059931;28;20086;-73
2022/03/04 00:58:40;;;;;;;85.72;50.00;;;76.80;2227.20;;;;;;5058527;28;20526;-74
2022/03/04 01:01:06;;;;;;;91.88;47.47;;;52.10;2227.20;;;;;;5063505;28;20029;-73
2022/03/04 01:03:34;;;;;;;81.22;47.95;;;52.10;2227.20;;;;;;5063726;28;20107;-74
2022/03/04 01:06:04;;;;;;;83.60;49.58;;;76.80;2227.20;;;;;;5061682;28;20033;-74
2022/03/04 01:08:33;;;;;;;89.20;49.45;;;76.80;2227.20;;;;;;5061077;28;20078;-74
2022/03/04 01:11:00;;;;;;;88.63;47.35;;;76.90;2227.20;;;;;;5061705;28;20040;-73
2022/03/04 01:13:26;;;;;;;92.50;50.85;;;76.90;2227.20;;;;;;5061892;28;20021;-73
2022/03/04 01:15:54;;;;;;;98.40;53.15;;;76.90;2227.20;;;;;;5062153;28;20455;-74
2022/03/04 01:18:20;;;;;;;95.63;51.38;;;76.90;2227.20;;;;;;5077335;28;20044;-74
2022/03/04 01:20:46;;;;;;;94.07;54.92;;;76.90;2227.20;;;;;;5064137;28;20020;-73
2022/03/04 01:23:12;;;;;;;94.40;52.53;;;77.00;2227.20;;;;;;5062869;28;20029;-73
2022/03/04 01:25:38;;;;;;;87.95;50.85;;;76.90;2227.20;;;;;;5060972;28;20404;-74
2022/03/04 01:28:04;;;;;;;97.80;52.33;;;76.90;2227.20;;;;;;5062049;28;20017;-73
2022/03/04 01:30:32;;;;;;;95.15;51.75;;;76.80;2227.20;;;;;;5060813;28;20017;-74
2022/03/04 01:32:58;;;;;;;95.32;50.45;;;76.90;2227.20;;;;;;5061814;28;20101;-74
2022/03/04 01:35:24;;;;;;;101.60;54.78;;;76.90;2227.20;;;;;;5061088;28;20454;-73
2022/03/04 01:37:50;;;;;;;96.05;51.38;;;77.00;2227.20;;;;;;5061397;28;20045;-73
2022/03/04 01:40:16;;;;;;;88.93;53.60;;;76.90;2227.20;;;;;;5062317;28;20078;-73
2022/03/04 01:42:48;;;;;;;95.65;54.53;;;77.00;2227.20;;;;;;5078189;28;20028;-73
2022/03/04 01:45:17;;;;;;;93.30;51.17;;;77.10;2227.20;;;;;;5064825;28;20017;-74
2022/03/04 01:47:55;;;;;;;98.40;53.90;;;77.00;2227.20;;;;;;5062003;28;20035;-74
2022/03/04 01:50:22;;;;;;;84.07;47.70;;;77.00;2227.20;;;;;;5066115;28;20025;-73
2022/03/04 01:52:48;;;;;;;101.95;51.67;;;77.00;2227.20;;;;;;5063120;28;20074;-73
2022/03/04 01:55:14;;;;;;;91.78;51.90;;;76.90;2227.20;;;;;;5065736;28;20020;-73
2022/03/04 01:57:39;;;;;;;93.15;51.20;;;76.90;2227.20;;;;;;5064566;28;20029;-73
2022/03/04 02:00:08;;;;;;;94.72;53.00;;;76.90;2227.20;;;;;;5062089;28;20112;-74
2022/03/04 02:02:34;;;;;;;97.45;51.40;;;77.00;2227.20;;;;;;5065160;28;20027;-73
2022/03/04 02:05:02;;;;;;;92.70;50.90;;;77.10;2227.20;;;;;;5060239;28;20074;-73
2022/03/04 02:07:28;;;;;;;88.53;49.65;;;77.00;2227.20;;;;;;5061611;28;20070;-74
2022/03/04 02:09:54;;;;;;;88.20;51.30;;;77.00;2227.20;;;;;;5062310;28;20027;-74
2022/03/04 02:12:19;;;;;;;83.15;48.45;;;77.00;2227.20;;;;;;5060830;28;20037;-73
2022/03/04 02:14:45;;;;;;;86.00;50.55;;;77.10;2227.20;;;;;;5062669;28;20095;-73
2022/03/04 02:17:11;;;;;;;88.50;49.70;;;77.00;2227.20;;;;;;5063169;28;20392;-73
2022/03/04 02:19:37;;;;;;;83.00;49.88;;;77.00;2227.20;;;;;;5059396;28;20037;-73
2022/03/04 02:22:04;;;;;;;91.45;52.13;;;77.00;2227.20;;;;;;5065586;28;20043;-73
2022/03/04 02:24:34;;;;;;;107.13;52.08;;;77.00;2227.20;;;;;;5061243;28;20479;-74
2022/03/04 02:27:08;;;;;;;90.93;48.95;;;76.90;2227.20;;;;;;5062775;28;20033;-74
2022/03/04 02:29:34;;;;;;;82.85;48.17;;;76.90;2227.20;;;;;;5058021;28;20049;-73
2022/03/04 02:32:00;;;;;;;90.35;50.15;;;76.90;2227.20;;;;;;5062726;28;20069;-73
2022/03/04 02:34:26;;;;;;;87.95;48.78;;;76.80;2227.20;;;;;;5058973;28;20118;-73
2022/03/04 02:36:52;;;;;;;95.70;51.80;;;76.80;2227.20;;;;;;5063301;28;20128;-73
2022/03/04 02:39:18;;;;;;;88.80;49.05;;;76.80;2227.20;;;;;;5080719;28;20048;-73
2022/03/04 02:41:44;;;;;;;97.28;49.70;;;76.80;2227.20;;;;;;5060298;28;20032;-73
2022/03/04 02:44:12;;;;;;;94.93;53.58;;;52.10;2227.20;;;;;;5064565;28;20082;-73
2022/03/04 02:46:38;;;;;;;89.47;49.72;;;52.10;2227.20;;;;;;5082888;28;20021;-73
2022/03/04 02:49:06;;;;;;;99.25;55.15;;;51.90;2227.20;;;;;;5060741;28;20103;-73
2022/03/04 02:51:32;;;;;;;88.93;52.20;;;51.90;2227.20;;;;;;5065433;28;20482;-73
2022/03/04 02:53:57;;;;;;;86.88;50.20;;;51.80;2227.20;;;;;;5068620;28;20527;-74
2022/03/04 02:56:26;;;;;;;95.15;53.55;;;51.80;2227.20;;;;;;5070739;28;20025;-74
2022/03/04 02:58:52;;;;;;;93.07;51.03;;;51.70;2227.20;;;;;;5067603;28;20039;-73
2022/03/04 03:01:18;;;;;;;93.10;55.38;;;51.70;2227.20;;;;;;5066728;28;20419;-73
2022/03/04 03:03:44;;;;;;;99.28;53.08;;;51.50;2227.20;;;;;;5060388;28;20387;-73
2022/03/04 03:06:10;;;;;;;87.20;52.10;;;51.60;2227.20;;;;;;5061123;28;20033;-73
2022/03/04 03:08:36;;;;;;;98.65;54.47;;;51.40;2227.20;;;;;;5061228;28;20143;-74
2022/03/04 03:11:02;;;;;;;96.70;52.05;;;26.50;2201.60;;;;;;5061688;28;20379;-73
2022/03/04 03:13:28;;;;;;;88.35;50.92;;;26.40;2201.60;;;;;;5061580;28;20025;-73
2022/03/04 03:15:54;;;;;;;88.80;48.67;;;26.30;2201.60;;;;;;5065670;28;20358;-74
2022/03/04 03:18:19;;;;;;;97.40;52.20;;;26.40;2201.60;;;;;;5066117;28;20044;-73
2022/03/04 03:20:45;;;;;;;95.32;52.33;;;26.30;2201.60;;;;;;5061987;28;20150;-73
2022/03/04 03:23:11;;;;;;;90.47;51.40;;;26.20;2201.60;;;;;;5059846;28;20028;-73
2022/03/04 03:25:37;;;;;;;90.65;50.60;;;26.20;2201.60;;;;;;5061881;28;20028;-73
2022/03/04 03:28:04;;;;;;;97.80;51.22;;;26.30;2201.60;;;;;;5060833;28;20025;-73
2022/03/04 03:30:30;;;;;;;87.50;49.83;;;26.20;2201.60;;;;;;5059454;28;20036;-73
2022/03/04 03:33:11;;;;;;;88.80;48.47;;;26.10;2201.60;;;;;;5061476;28;20055;-73
2022/03/04 03:35:39;;;;;;;92.88;49.95;;;26.10;2201.60;;;;;;5061727;28;20025;-73
2022/03/04 03:38:05;;;;;;;89.72;52.08;;;26.00;2201.60;;;;;;5059769;28;20053;-73
2022/03/04 03:40:31;;;;;;;87.63;47.25;;;26.10;2201.60;;;;;;5063914;28;20027;-72
2022/03/04 03:42:56;;;;;;;100.63;50.90;;;26.00;2201.60;;;;;;5062074;28;20032;-73
2022/03/04 03:45:22;;;;;;;93.70;49.30;;;25.90;2201.60;;;;;;5065796;28;20025;-73
2022/03/04 03:47:48;;;;;;;95.13;51.03;;;25.90;2201.60;;;;;;5064824;28;20488;-72
2022/03/04 03:50:14;;;;;;;79.85;48.28;;;26.10;2201.60;;;;;;5062949;28;20440;-73
2022/03/04 03:52:40;;;;;;;88.03;49.70;;;26.00;2201.60;;;;;;5064772;28;20021;-73
2022/03/04 03:55:07;;;;;;;99.00;50.55;;;26.00;2201.60;;;;;;5064301;28;20013;-73
2022/03/04 03:57:33;;;;;;;94.82;50.08;;;26.00;2201.60;;;;;;5060863;28;20107;-73
2022/03/04 03:59:58;;;;;;;92.68;50.05;;;25.90;2201.60;;;;;;5064578;28;20484;-73
2022/03/04 04:02:24;;;;;;;94.65;50.65;;;25.90;2201.60;;;;;;5064067;28;20480;-72
2022/03/04 04:04:50;;;;;;;103.28;52.17;;;25.80;2201.60;;;;;;5057841;28;20043;-73
2022/03/04 04:07:15;;;;;;;100.53;53.58;;;25.90;2201.60;;;;;;5066072;28;20027;-73
2022/03/04 04:09:41;;;;;;;100.13;52.10;;;25.90;2201.60;;;;;;5063398;28;20112;-73
2022/03/04 04:12:08;;;;;;;81.38;51.20;;;26.00;2201.60;;;;;;5063447;28;20036;-73
2022/03/04 04:14:33;;;;;;;95.85;51.47;;;25.90;2201.60;;;;;;5064803;28;20024;-73
2022/03/04 04:16:59;;;;;;;99.75;52.13;;;26.00;2201.60;;;;;;5065983;28;20021;-74
2022/03/04 04:19:25;;;;;;;88.97;49.75;;;25.90;2201.60;;;;;;5061893;28;20036;-73
2022/03/04 04:21:54;;;;;;;97.55;51.80;;;25.80;2201.60;;;;;;5066829;28;20025;-72
2022/03/04 04:24:20;;;;;;;97.68;50.97;;;25.80;2201.60;;;;;;5066826;28;20029;-72
2022/03/04 04:26:46;;;;;;;95.82;53.45;;;25.70;2201.60;;;;;;5064565;28;20025;-72
2022/03/04 04:29:12;;;;;;;91.30;49.55;;;25.70;2201.60;;;;;;5065177;28;20372;-72
2022/03/04 04:31:38;;;;;;;93.82;52.50;;;25.60;2201.60;;;;;;5065745;28;20021;-73
2022/03/04 04:34:04;;;;;;;102.18;52.50;;;0.90;2201.60;;;;;;5061066;28;20079;-72
2022/03/04 04:36:33;;;;;;;89.88;49.72;;;25.60;2201.60;;;;;;5063775;28;20489;-72
2022/03/04 04:39:03;;;;;;;99.63;52.75;;;25.60;2201.60;;;;;;5077458;28;20057;-73
2022/03/04 04:41:31;;;;;;;92.10;49.85;;;25.70;2201.60;;;;;;5060554;28;20024;-72
2022/03/04 04:43:57;;;;;;;89.53;52.25;;;25.70;2201.60;;;;;;5065209;28;20056;-73
2022/03/04 04:46:23;;;;;;;100.18;52.03;;;25.60;2201.60;;;;;;5080781;28;20036;-73
2022/03/04 04:48:49;;;;;;;101.25;52.97;;;25.60;2201.60;;;;;;5061574;28;20071;-74
2022/03/04 04:51:14;;;;;;;90.22;49.88;;;0.90;2201.60;;;;;;5064248;28;20043;-72
2022/03/04 04:53:40;;;;;;;98.07;50.38;;;0.90;2201.60;;;;;;5061310;28;20141;-72
2022/03/04 04:56:06;;;;;;;97.88;50.08;;;25.60;2201.60;;;;;;5062370;28;20021;-72
2022/03/04 04:58:32;;;;;;;87.97;47.65;;;0.90;2201.60;;;;;;5062125;28;20035;-72
2022/03/04 05:00:58;;;;;;;90.68;53.10;;;0.90;2201.60;;;;;;5063111;28;20112;-73
2022/03/04 05:03:25;;;;;;;95.75;52.42;;;0.90;2201.60;;;;;;5063211;28;20024;-73
2022/03/04 05:05:54;;;;;;;89.18;48.40;;;25.60;2201.60;;;;;;5062289;28;20106;-72
2022/03/04 05:08:27;;;;;;;91.13;50.97;;;0.90;2201.60;;;;;;5062718;28;20423;-73
2022/03/04 05:10:54;;;;;;;91.03;52.15;;;0.90;2201.60;;;;;;5068454;28;20083;-75
2022/03/04 05:13:19;;;;;;;104.90;55.63;;;0.90;2201.60;;;;;;5063993;28;20024;-72
2022/03/04 05:15:45;;;;;;;93.88;54.00;;;0.90;2201.60;;;;;;5063535;28;20469;-72
2022/03/04 05:18:17;;;;;;;95.63;52.35;;;25.60;2201.60;;;;;;5066465;28;20036;-72
2022/03/04 05:20:43;;;;;;;99.55;56.25;;;25.60;2201.60;;;;;;5062733;28;20660;-72
2022/03/04 05:23:09;;;;;;;97.10;54.00;;;0.90;2201.60;;;;;;5064653;28;20032;-71
2022/03/04 05:25:35;;;;;;;103.40;56.22;;;25.60;2201.60;;;;;;5061626;28;20081;-72
2022/03/04 05:28:05;;;;;;;125.53;59.38;;;0.80;2201.60;;;;;;5065103;28;20029;-72
2022/03/04 05:30:31;;;;;;;118.93;60.78;;;0.80;2201.60;;;;;;5064012;28;20737;-71
2022/03/04 05:33:00;;;;;;;122.25;65.20;;;0.70;2201.60;;;;;;5063731;28;20040;-71
2022/03/04 05:35:26;;;;;;;111.35;59.60;;;0.60;2201.60;;;;;;5060678;28;20043;-72
2022/03/04 05:37:51;;;;;;;108.00;59.08;;;0.60;2201.60;;;;;;5064529;28;20703;-71
2022/03/04 05:40:26;;;;;;;116.18;61.72;;;0.50;2201.60;;;;;;5068101;28;20473;-72
2022/03/04 05:42:58;;;;;;;123.80;62.75;;;0.50;2201.60;;;;;;5057539;28;20025;-71
2022/03/04 05:45:23;;;;;;;94.18;54.00;;;0.50;2201.60;;;;;;5064823;28;20032;-71
2022/03/04 05:47:49;;;;;;;95.90;53.47;;;0.50;2201.60;;;;;;5061580;28;20036;-71
2022/03/04 05:50:15;;;;;;;93.70;51.55;;;0.60;2201.60;;;;;;5063103;28;20017;-72
2022/03/04 05:52:41;;;;;;;134.48;64.55;;;0.60;2201.60;;;;;;5064721;28;20047;-71
2022/03/04 05:55:08;;;;;;;110.07;57.83;;;0.60;2201.60;;;;;;5061185;28;20396;-72
2022/03/04 05:57:33;;;;;;;98.57;55.53;;;0.70;2201.60;;;;;;5083749;28;20112;-71
2022/03/04 05:59:59;;;;;;;119.15;55.70;;;0.70;2201.60;;;;;;5070923;28;20499;-71
2022/03/04 06:02:27;;;;;;;113.07;61.17;;;0.80;2201.60;;;;;;5064274;28;20519;-72
2022/03/04 06:04:59;;;;;;;115.20;63.15;;;0.80;2201.60;;;;;;5063908;28;20029;-73
2022/03/04 06:07:25;;;;;;;115.63;58.22;;;0.90;2201.60;;;;;;5060814;28;20033;-72
2022/03/04 06:09:51;;;;;;;122.18;62.92;;;25.60;2201.60;;;;;;5060421;28;20036;-71
2022/03/04 06:12:17;;;;;;;113.50;60.40;;;25.60;2201.60;;;;;;5062206;28;20061;-72
2022/03/04 06:14:43;;;;;;;93.38;53.47;;;25.80;2201.60;;;;;;5076515;28;20436;-71
2022/03/04 06:17:09;;;;;;;95.40;51.72;;;25.80;2201.60;;;;;;5062388;28;20021;-72
2022/03/04 06:19:34;;;;;;;105.07;58.45;;;25.90;2201.60;;;;;;5060198;28;20468;-71
2022/03/04 06:22:00;;;;;;;103.05;58.65;;;25.90;2201.60;;;;;;5062761;28;20028;-71
2022/03/04 06:24:26;;;;;;;121.45;62.53;;;25.80;2201.60;;;;;;5063309;28;20040;-72
2022/03/04 06:26:51;;;;;;;130.63;64.93;;;26.00;2201.60;;;;;;5060892;28;20117;-72
2022/03/04 06:29:17;;;;;;;103.80;55.47;;;25.90;2201.60;;;;;;5063553;28;20106;-71
2022/03/04 06:31:49;;;;;;;101.43;54.60;;;26.00;2201.60;;;;;;5055012;28;20100;-72
2022/03/04 06:34:15;;;;;;;112.38;62.90;;;26.10;2201.60;;;;;;5066438;28;20024;-71
2022/03/04 06:36:40;;;;;;;98.07;53.30;;;26.30;2201.60;;;;;;5066634;28;20041;-72
2022/03/04 06:39:06;;;;;;;93.20;50.60;;;26.50;2201.60;;;;;;5069818;28;20058;-72
2022/03/04 06:41:32;;;;;;;103.38;57.72;;;51.30;2227.20;;;;;;5061395;28;20032;-72
2022/03/04 06:43:58;;;;;;;104.20;54.67;;;51.40;2227.20;;;;;;5066267;28;20060;-71
2022/03/04 06:46:23;;;;;;;99.53;57.65;;;51.60;2227.20;;;;;;5060880;28;20376;-71
2022/03/04 06:48:49;;;;;;;98.68;54.85;;;51.60;2227.20;;;;;;5069318;28;20028;-72
2022/03/04 06:51:15;;;;;;;104.95;52.92;;;51.70;2227.20;;;;;;5069479;28;20070;-71
2022/03/04 06:53:41;;;;;;;98.45;55.45;;;52.00;2227.20;;;;;;5070198;28;20094;-72
2022/03/04 06:56:07;;;;;;;86.93;54.58;;;76.80;2227.20;;;;;;5068651;28;20111;-72
2022/03/04 06:58:33;;;;;;;91.60;52.50;;;76.80;2227.20;;;;;;5070009;28;20059;-71
2022/03/04 07:00:58;;;;;;;103.35;55.47;;;52.10;2227.20;;;;;;5070480;28;20432;-72
2022/03/04 07:03:24;;;;;;;93.30;52.72;;;52.10;2227.20;;;;;;5059964;28;20021;-72
2022/03/04 07:05:50;;;;;;;91.72;51.83;;;76.80;2227.20;;;;;;5059922;28;20049;-72
2022/03/04 07:08:22;;;;;;;97.75;54.58;;;77.00;2227.20;;;;;;5065045;28;20392;-71
2022/03/04 07:10:50;;;;;;;86.10;50.17;;;77.00;2227.20;;;;;;5057784;28;20028;-72
2022/03/04 07:13:19;;;;;;;101.57;53.42;;;77.20;2227.20;;;;;;5060132;28;20021;-72
2022/03/04 07:15:45;;;;;;;89.63;51.53;;;77.30;2227.20;;;;;;5063571;28;20021;-71
2022/03/04 07:18:11;;;;;;;87.97;50.88;;;77.60;2227.20;;;;;;5068164;28;20023;-72
2022/03/04 07:20:36;;;;;;;76.15;46.80;;;102.50;2227.20;;;;;;5071493;28;20024;-72
2022/03/04 07:23:03;;;;;;;85.25;49.40;;;102.80;2227.20;;;;;;5074992;28;20081;-73
2022/03/04 07:25:29;;;;;;;82.70;45.38;;;102.90;2227.20;;;;;;5074133;28;20031;-72
2022/03/04 07:27:55;;;;;;;83.82;47.25;;;102.90;2227.20;;;;;;5066759;28;20020;-72
2022/03/04 07:30:20;;;;;;;77.00;46.72;;;103.00;2227.20;;;;;;5064020;28;20124;-73
2022/03/04 07:32:46;;;;;;;75.63;44.80;;;103.00;2227.20;;;;;;5074246;28;20045;-73
2022/03/04 07:35:13;;;;;;;82.85;45.58;;;103.20;2227.20;;;;;;5073651;28;20103;-73
2022/03/04 07:37:40;;;;;;;77.57;46.83;;;128.10;2252.80;;;;;;5060195;28;20044;-73
2022/03/04 07:40:13;;;;;;;69.88;43.67;;;128.40;2252.80;;;;;;5067496;28;20040;-73
2022/03/04 07:42:48;;;;;;;77.85;47.38;;;128.50;2252.80;;;;;;5066574;28;20032;-73
2022/03/04 07:45:14;;;;;;;77.07;46.58;;;153.60;2252.80;;;;;;5070513;28;20033;-73
2022/03/04 07:47:41;;;;;;;73.72;45.78;;;153.90;2252.80;;;;;;5068717;28;20033;-74
2022/03/04 07:50:10;;;;;;;76.20;45.83;;;154.20;2252.80;;;;;;5073773;28;20091;-73
2022/03/04 07:52:36;;;;;;;73.57;45.45;;;154.30;2252.80;;;;;;5087458;28;20043;-73
2022/03/04 07:55:05;;;;;;;76.95;46.38;;;179.20;2252.80;;;;;;5055106;28;20021;-72
2022/03/04 07:57:34;;;;;;;74.30;44.70;;;179.30;2252.80;;;;;;5059102;28;20056;-71
2022/03/04 08:00:00;;;;;;;70.10;43.05;;;179.60;2252.80;;;;;;5065497;28;20036;-71
2022/03/04 08:02:26;;;;;;;69.55;43.38;;;179.90;2252.80;;;;;;5054456;28;20063;-72
2022/03/04 08:04:52;;;;;;;68.07;41.88;;;204.90;2252.80;;;;;;5060340;28;20102;-74
2022/03/04 08:07:18;;;;;;;66.28;42.65;;;205.10;2252.80;;;;;;5055101;28;20029;-72
2022/03/04 08:09:45;;;;;;;76.30;47.08;;;205.10;2252.80;;;;;;5065283;28;20036;-72
2022/03/04 08:12:11;;;;;;;71.75;42.15;;;205.10;2252.80;;;;;;5065227;28;20075;-75
2022/03/04 08:14:38;;;;;;;87.60;49.05;;;205.20;2252.80;;;;;;5063999;28;20494;-72
2022/03/04 08:17:04;;;;;;;76.65;44.50;;;205.30;2252.80;;;;;;5070480;28;20103;-72
2022/03/04 08:19:39;;;;;;;69.55;44.50;;;205.30;2252.80;;;;;;5073710;28;20060;-74
2022/03/04 08:22:05;;;;;;;72.18;44.20;;;205.50;2252.80;;;;;;5072627;28;20135;-73
2022/03/04 08:24:32;;;;;;;66.93;42.33;;;205.60;2252.80;;;;;;5071680;28;20040;-72
2022/03/04 08:26:57;;;;;;;72.00;43.03;;;230.40;2252.80;;;;;;5071987;28;20060;-72
2022/03/04 08:29:23;;;;;;;73.10;44.90;;;205.30;2252.80;;;;;;5058898;28;20045;-73
2022/03/04 08:31:49;;;;;;;78.65;49.20;;;205.00;2252.80;;;;;;5088384;28;20056;-72
2022/03/04 08:34:15;;;;;;;72.00;47.88;;;204.90;2252.80;;;;;;5088273;28;20043;-75
2022/03/04 08:36:41;;;;;;;78.72;47.17;;;180.10;2252.80;;;;;;5059169;28;20021;-72
2022/03/04 08:39:06;;;;;;;83.03;47.95;;;204.80;2252.80;;;;;;5055240;28;20056;-72
2022/03/04 08:41:36;;;;;;;77.53;46.40;;;204.80;2252.80;;;;;;5068861;28;20033;-74
2022/03/04 08:44:03;;;;;;;71.38;44.40;;;205.00;2252.80;;;;;;5072822;28;20052;-72
2022/03/04 08:46:37;;;;;;;93.38;50.38;;;205.20;2252.80;;;;;;5063868;28;20066;-73
2022/03/04 08:49:03;;;;;;;69.93;44.17;;;205.30;2252.80;;;;;;5067965;28;20029;-73
2022/03/04 08:51:29;;;;;;;72.78;46.47;;;205.70;2252.80;;;;;;5063695;28;20431;-74
2022/03/04 08:53:55;;;;;;;78.15;47.35;;;230.50;2252.80;;;;;;5063619;28;20078;-72
2022/03/04 08:56:22;;;;;;;80.50;50.67;;;230.80;2252.80;;;;;;5066667;28;20423;-72
2022/03/04 08:58:48;;;;;;;70.57;44.90;;;231.20;2201.60;;;;;;5051697;28;20035;-72
2022/03/04 09:01:17;;;;;;;66.75;40.50;;;256.10;2252.80;;;;;;5054705;28;20025;-72
2022/03/04 09:03:49;;;;;;;65.50;40.58;;;256.20;2252.80;;;;;;5071595;28;20028;-72
2022/03/04 09:06:14;;;;;;;61.20;40.90;;;256.40;2252.80;;;;;;5067247;28;20115;-73
2022/03/04 09:08:40;;;;;;;58.78;38.20;;;256.40;2227.20;;;;;;5057503;28;20121;-72
2022/03/04 09:11:06;;;;;;;55.22;38.63;;;256.40;2252.80;;;;;;5051740;28;20033;-73
2022/03/04 09:13:33;;;;;;;58.92;38.67;;;256.50;2227.20;;;;;;5061387;28;20107;-72
2022/03/04 09:16:02;;;;;;;54.28;33.90;;;256.80;2150.40;;;;;;5065353;28;20032;-74
2022/03/04 09:18:28;;;;;;;50.65;33.95;;;256.90;2176.00;;;;;;5071807;28;20043;-73
2022/03/04 09:20:57;;;;;;;53.25;32.40;;;281.70;2176.00;;;;;;5072469;28;20460;-72
2022/03/04 09:23:26;;;;;;;49.60;32.47;;;256.80;2227.20;;;;;;5064938;28;20033;-72
2022/03/04 09:25:52;;;;;;;48.00;33.50;;;281.90;2201.60;;;;;;5052202;28;20021;-73
2022/03/04 09:28:18;;;;;;;59.10;34.30;;;282.10;2150.40;;;;;;5058745;28;20048;-72
2022/03/04 09:30:50;;;;;;;43.45;30.55;;;282.10;2124.80;;;;;;5055374;28;20024;-72
2022/03/04 09:33:16;;;;;;;47.47;32.70;;;282.20;2099.20;;;;;;5070462;28;20016;-72
2022/03/04 09:35:42;;;;;;;49.00;29.42;;;307.20;2048.00;;;;;;5059403;28;20476;-72
2022/03/04 09:38:07;;;;;;;46.92;28.63;;;307.60;1996.80;;;;;;5068598;28;20071;-73
2022/03/04 09:40:33;;;;;;;41.08;26.52;;;307.80;1945.60;;;;;;5070988;28;20038;-72
2022/03/04 09:43:00;;;;;;;68.15;28.17;;;307.90;1894.40;;;;;;5071543;28;20032;-72
2022/03/04 09:45:26;;;;;;;47.35;29.42;;;333.10;1868.80;;;;;;5061386;28;20025;-73
2022/03/04 09:47:52;;;;;;;43.05;25.60;;;333.50;1843.20;;;;;;5067752;28;20021;-73
2022/03/04 09:50:18;;;;;;;37.95;24.85;;;333.60;1792.00;;;;;;5071521;28;20039;-73
2022/03/04 09:52:46;;;;;;;37.45;25.95;;;358.40;1792.00;;;;;;5051659;28;20021;-73
2022/03/04 09:55:13;;;;;;;31.90;23.55;;;358.70;1740.80;;;;;;5051874;28;20464;-73
2022/03/04 09:57:40;;;;;;;32.28;22.90;;;358.60;1740.80;;;;;;5057395;28;20032;-73
2022/03/04 10:00:06;;;;;;;38.95;23.48;;;333.40;1792.00;;;;;;5071639;28;20028;-72
2022/03/04 10:02:40;;;;;;;45.47;23.38;;;359.00;1689.60;;;;;;5071251;28;20028;-73
2022/03/04 10:05:08;;;;;;;30.35;21.15;;;359.10;1664.00;;;;;;5071707;28;20031;-73
2022/03/04 10:07:43;;;;;;;33.55;23.08;;;384.40;1561.60;;;;;;5086805;28;20058;-72
2022/03/04 10:10:14;;;;;;;32.22;22.73;;;384.90;1536.00;;;;;;5070295;28;20027;-72
2022/03/04 10:12:51;;;;;;;29.90;22.10;;;384.90;1510.40;;;;;;5062351;28;20056;-73
2022/03/04 10:15:21;;;;;;;40.33;24.52;;;409.60;1561.60;;;;;;5050975;28;20488;-73
2022/03/04 10:18:08;;;;;;;30.33;22.05;;;384.60;1587.20;;;;;;5066896;28;20062;-73
2022/03/04 10:20:38;;;;;;;29.23;21.50;;;384.50;1587.20;;;;;;5070971;28;20029;-73
2022/03/04 10:23:22;;;;;;;43.10;26.25;;;384.60;1536.00;;;;;;5067957;28;20028;-73
2022/03/04 10:25:51;;;;;;;37.67;25.05;;;384.00;1587.20;;;;;;5060019;28;20029;-73
2022/03/04 10:28:18;;;;;;;30.70;19.85;;;359.00;1638.40;;;;;;5066437;28;20074;-73
2022/03/04 10:30:46;;;;;;;34.38;20.95;;;358.70;1638.40;;;;;;5060138;28;20028;-73
2022/03/04 10:33:24;;;;;;;49.28;21.98;;;384.50;1561.60;;;;;;5071038;28;20059;-72
2022/03/04 10:36:09;;;;;;;33.00;22.70;;;384.50;1536.00;;;;;;5070448;28;20036;-72
2022/03/04 10:38:36;;;;;;;33.20;21.13;;;409.90;1536.00;;;;;;5069252;28;20097;-73
2022/03/04 10:41:35;;;;;;;36.15;22.33;;;410.30;1510.40;;;;;;5070921;28;20249;-73
2022/03/04 10:44:23;;;;;;;31.27;21.70;;;410.40;1510.40;;;;;;5065386;28;20020;-73
2022/03/04 10:46:58;;;;;;;33.08;23.40;;;384.80;1536.00;;;;;;5066094;28;20048;-72
2022/03/04 10:49:26;;;;;;;44.92;25.25;;;359.00;1638.40;;;;;;5068370;28;20028;-73
2022/03/04 10:52:05;;;;;;;35.78;20.60;;;333.60;1689.60;;;;;;5075119;28;20483;-73
2022/03/04 10:54:31;;;;;;;42.00;24.83;;;333.40;1715.20;;;;;;5072976;28;20051;-72
2022/03/04 10:56:57;;;;;;;51.83;28.90;;;333.20;1740.80;;;;;;5072930;28;20476;-73
2022/03/04 10:59:23;;;;;;;71.22;38.90;;;332.80;1766.40;;;;;;5071715;28;20037;-74
2022/03/04 11:01:51;;;;;;;139.25;60.47;;;308.10;1740.80;;;;;;5072969;28;20033;-72
2022/03/04 11:04:21;;;;;;;59.25;28.10;;;332.80;1766.40;;;;;;5056764;28;20422;-72
2022/03/04 11:06:49;;;;;;;103.90;43.83;;;333.50;1689.60;;;;;;5070803;28;20025;-72
2022/03/04 11:09:26;;;;;;;26.55;20.27;;;332.80;1766.40;;;;;;5074652;28;20025;-72
2022/03/04 11:11:53;;;;;;;44.55;23.42;;;307.60;1817.60;;;;;;5075034;28;20069;-73
2022/03/04 11:14:21;;;;;;;44.15;28.30;;;307.30;1843.20;;;;;;5077001;28;20165;-73
2022/03/04 11:16:48;;;;;;;44.30;23.50;;;282.50;1868.80;;;;;;5076188;28;20107;-73
2022/03/04 11:19:15;;;;;;;36.05;23.88;;;282.00;1945.60;;;;;;5066607;28;20021;-73
2022/03/04 11:21:41;;;;;;;32.22;21.45;;;281.70;2073.60;;;;;;5055754;28;20376;-72
2022/03/04 11:24:07;;;;;;;33.08;23.73;;;281.60;2150.40;;;;;;5057108;28;20464;-72
2022/03/04 11:26:44;;;;;;;34.40;23.13;;;256.80;2201.60;;;;;;5059671;28;20103;-73
2022/03/04 11:29:37;;;;;;;29.38;20.23;;;256.60;2252.80;;;;;;5077117;28;20471;-72
2022/03/04 11:32:06;;;;;;;31.95;22.48;;;256.60;2252.80;;;;;;5076733;28;20017;-72
2022/03/04 11:34:40;;;;;;;28.92;20.27;;;256.40;2252.80;;;;;;5076153;28;20032;-72
2022/03/04 11:37:15;;;;;;;32.83;20.63;;;256.30;2252.80;;;;;;5056382;28;20025;-71
2022/03/04 11:40:33;;;;;;;36.35;20.10;;;256.30;2252.80;;;;;;5057138;28;20044;-73
2022/03/04 11:42:56;;;;;;;29.73;19.98;;;256.30;2252.80;;;;;;5063459;28;20050;-72
2022/03/04 11:45:37;;;;;;;25.40;17.80;;;256.40;2252.80;;;;;;5070150;28;20025;-72
2022/03/04 11:48:12;;;;;;;26.23;17.08;;;256.20;2252.80;;;;;;5072643;28;20025;-74
2022/03/04 11:50:48;;;;;;;27.20;18.63;;;256.10;2252.80;;;;;;5071256;28;20028;-72
2022/03/04 11:53:20;;;;;;;39.70;25.33;;;256.10;2252.80;;;;;;5076723;28;20039;-72
2022/03/04 11:56:10;;;;;;;32.47;20.80;;;256.00;2252.80;;;;;;5076807;28;20495;-72
2022/03/04 11:58:57;;;;;;;34.53;22.65;;;256.10;2252.80;;;;;;5077139;28;20020;-71
2022/03/04 12:01:27;;;;;;;31.08;20.08;;;256.10;2252.80;;;;;;5075607;28;20047;-72
2022/03/04 12:04:10;;;;;;;39.15;23.95;;;256.10;2252.80;;;;;;5072321;28;20035;-72
2022/03/04 12:06:40;;;;;;;26.35;19.55;;;256.10;2252.80;;;;;;5088365;28;20044;-72
2022/03/04 12:09:28;;;;;;;26.40;17.27;;;256.10;2252.80;;;;;;5072273;28;20025;-72